Time;durP1;ratioP1;P1;durP2;ratioP2;P2;SDS_P1;SDS_P2;PMS_P1;PMS_P2;Temp;Humidity;BMP_temperature;BMP_pressure;BME280_temperature;BME280_humidity;BME280_pressure;Samples;Min_cycle;Max_cycle;Signal;HPM_P1;HPM_P2
2023/04/22 00:00:07;;;;;;;5.68;2.65;;;;;;;10.57;52.71;101059.16;15443221;28;20049;-49
2023/04/22 00:07:43;;;;;;;3.85;1.70;;;;;;;10.32;53.24;101047.31;15435778;28;20049;-50
2023/04/22 00:15:19;;;;;;;6.15;2.17;;;;;;;10.24;53.33;101037.56;15435923;28;20043;-51
2023/04/22 00:22:53;;;;;;;2.67;1.77;;;;;;;10.27;53.14;101031.81;15448838;28;20039;-51
2023/04/22 00:30:26;;;;;;;3.90;1.55;;;;;;;10.13;53.67;101016.66;15440002;28;20049;-53
2023/04/22 00:38:00;;;;;;;3.00;1.93;;;;;;;10.27;53.46;101022.94;15448892;28;20039;-52
2023/04/22 00:45:34;;;;;;;2.42;1.60;;;;;;;10.63;52.79;101019.91;15447664;28;20129;-52
2023/04/22 00:53:08;;;;;;;3.45;2.33;;;;;;;10.71;51.55;101009.81;15446996;28;20051;-50
2023/04/22 01:00:41;;;;;;;4.35;2.15;;;;;;;10.81;50.68;101016.66;15435144;28;20070;-50
2023/04/22 01:08:15;;;;;;;10.90;1.80;;;;;;;10.26;52.30;101002.47;15429535;28;20070;-52
2023/04/22 01:15:49;;;;;;;8.18;1.65;;;;;;;10.31;52.30;100997.38;15428605;28;20460;-52
2023/04/22 01:23:23;;;;;;;3.30;1.85;;;;;;;10.64;51.72;100997.44;15428959;28;20123;-51
2023/04/22 01:30:59;;;;;;;4.30;1.88;;;;;;;10.20;52.46;100991.50;15428447;28;20400;-51
2023/04/22 01:38:34;;;;;;;2.58;1.75;;;;;;;9.50;54.25;100994.47;15444599;28;20050;-52
2023/04/22 01:46:08;;;;;;;2.10;1.90;;;;;;;9.55;54.55;100982.13;15430561;28;20523;-51
2023/04/22 01:53:43;;;;;;;1.73;1.63;;;;;;;9.29;55.09;100972.09;15427677;28;20130;-52
2023/04/22 02:01:15;;;;;;;4.15;1.50;;;;;;;9.27;55.10;100970.63;15430251;28;20043;-51
2023/04/22 02:08:50;;;;;;;4.27;2.30;;;;;;;9.71;54.74;100963.06;15430872;28;20047;-52
2023/04/22 02:16:23;;;;;;;5.50;1.70;;;;;;;9.73;54.71;100959.34;15424481;28;20064;-52
2023/04/22 02:23:57;;;;;;;2.55;1.23;;;;;;;10.00;53.49;100953.06;15453971;28;20039;-54
2023/04/22 02:31:30;;;;;;;4.40;1.90;;;;;;;9.06;56.21;100944.75;15455878;23;20101;-71
2023/04/22 02:39:05;;;;;;;3.55;1.45;;;;;;;9.25;55.55;100937.88;15522199;28;20104;-71
2023/04/22 02:46:38;;;;;;;6.72;1.10;;;;;;;9.74;54.40;100943.06;15543478;23;20077;-48
2023/04/22 02:54:12;;;;;;;3.87;1.63;;;;;;;9.71;55.47;100935.44;15474382;28;20476;-47
2023/04/22 03:02:04;;;;;;;7.82;2.97;;;;;;;9.73;55.40;100929.88;15436150;23;20039;-51
2023/04/22 03:09:58;;;;;;;3.03;1.25;;;;;;;9.41;56.17;100937.53;15432925;28;20054;-53
2023/04/22 03:17:31;;;;;;;3.42;1.83;;;;;;;8.89;57.33;100915.59;15421839;28;20389;-52
2023/04/22 03:25:10;;;;;;;3.55;1.38;;;;;;;9.27;56.21;100928.59;15450926;28;20404;-50
2023/04/22 03:32:44;;;;;;;2.15;1.73;;;;;;;9.33;55.64;100937.72;15421039;28;20097;-49
2023/04/22 03:40:28;;;;;;;7.20;2.50;;;;;;;9.44;55.84;100937.16;15451145;28;20041;-54
2023/04/22 03:48:01;;;;;;;5.85;2.28;;;;;;;8.50;57.15;100931.31;15420852;28;20129;-52
2023/04/22 03:55:45;;;;;;;4.70;1.42;;;;;;;8.22;57.72;100929.38;15434878;28;20046;-52
2023/04/22 04:03:20;;;;;;;5.03;2.17;;;;;;;8.05;58.65;100925.28;15422088;28;20039;-55
2023/04/22 04:10:59;;;;;;;6.80;2.10;;;;;;;8.49;57.76;100935.03;15449549;28;20034;-53
2023/04/22 04:18:33;;;;;;;3.92;1.75;;;;;;;8.96;56.64;100937.06;15435598;28;20034;-51
2023/04/22 04:26:08;;;;;;;7.07;1.50;;;;;;;8.54;57.44;100940.63;15434308;28;20034;-50
2023/04/22 04:33:46;;;;;;;2.92;2.10;;;;;;;8.21;58.73;100930.41;15434311;28;20134;-51
2023/04/22 04:41:22;;;;;;;3.92;1.50;;;;;;;8.41;58.28;100930.63;15432350;28;20094;-53
2023/04/22 04:48:57;;;;;;;4.70;1.73;;;;;;;8.37;57.72;100926.66;15447983;28;20122;-50
2023/04/22 04:56:33;;;;;;;4.78;2.05;;;;;;;8.92;56.62;100927.75;15448699;28;20507;-52
2023/04/22 05:04:07;;;;;;;2.17;1.05;;;;;;;9.06;56.50;100931.38;15431839;28;20046;-51
2023/04/22 05:11:42;;;;;;;3.97;1.33;;;;;;;9.15;56.50;100927.50;15447137;28;20054;-51
2023/04/22 05:19:21;;;;;;;4.38;2.33;;;;;;;9.31;56.26;100923.69;15414769;28;20507;-51
2023/04/22 05:26:57;;;;;;;4.05;2.08;;;;;;;9.71;55.02;100928.22;15431247;28;20047;-55
2023/04/22 05:34:31;;;;;;;2.13;1.30;;;;;;;10.38;54.17;100929.25;15447333;28;20054;-51
2023/04/22 05:42:06;;;;;;;3.70;2.33;;;;;;;10.72;53.22;100944.38;15446022;28;20167;-53
2023/04/22 05:49:40;;;;;;;6.28;1.02;;;;;;;11.67;50.94;100949.38;15429259;28;20047;-50
2023/04/22 05:57:27;;;;;;;11.38;2.75;;;;;;;11.81;48.90;100944.78;15445265;28;20030;-52
2023/04/22 06:05:01;;;;;;;2.95;1.73;;;;;;;12.37;47.44;100949.50;15429771;28;20053;-52
2023/04/22 06:12:35;;;;;;;3.53;1.35;;;;;;;13.65;44.48;100947.13;15444160;28;20039;-54
2023/04/22 06:20:09;;;;;;;3.08;1.40;;;;;;;15.61;41.88;100939.06;15412954;28;20393;-56
2023/04/22 06:27:43;;;;;;;7.07;2.55;;;;;;;17.58;37.06;100948.19;15428302;28;20039;-53
2023/04/22 06:35:18;;;;;;;2.53;1.77;;;;;;;17.14;39.14;100944.59;15412882;28;20612;-52
2023/04/22 06:42:52;;;;;;;6.78;2.80;;;;;;;16.88;38.80;100937.13;15438754;28;20125;-53
2023/04/22 06:50:43;;;;;;;;;;;;;;;16.83;39.61;100944.13;15427733;28;20495;-50
2023/04/22 06:58:24;;;;;;;7.20;2.72;;;;;;;16.76;39.78;100937.22;15450005;28;19929;-52
2023/04/22 07:05:57;;;;;;;4.43;1.67;;;;;;;18.66;37.00;100949.38;15440081;28;20053;-54
2023/04/22 07:13:43;;;;;;;7.68;2.17;;;;;;;20.55;33.94;100938.34;15438368;28;20046;-55
2023/04/22 07:21:20;;;;;;;6.38;2.22;;;;;;;19.53;34.17;100931.75;15440351;28;20046;-54
2023/04/22 07:29:04;;;;;;;6.03;3.13;;;;;;;20.49;32.66;100931.28;15442320;28;20058;-55
2023/04/22 07:36:58;;;;;;;22.13;3.55;;;;;;;20.92;32.12;100926.34;15436082;28;20125;-53
2023/04/22 07:44:32;;;;;;;7.28;2.53;;;;;;;20.88;32.64;100914.34;15449448;28;20054;-51
2023/04/22 07:52:05;;;;;;;8.00;3.00;;;;;;;20.63;32.55;100912.44;15431978;28;20043;-52
2023/04/22 07:59:41;;;;;;;6.90;2.42;;;;;;;20.58;33.53;100901.53;15452683;28;20129;-54
2023/04/22 08:07:14;;;;;;;4.70;2.25;;;;;;;20.59;34.31;100895.00;15435904;28;20050;-54
2023/04/22 08:14:49;;;;;;;4.60;2.15;;;;;;;20.21;34.95;100885.41;15450760;28;20046;-53
2023/04/22 08:22:22;;;;;;;4.78;2.22;;;;;;;21.42;33.57;100885.59;15434124;28;20066;-55
2023/04/22 08:39:09;;;;;;;6.73;2.87;;;;;;;21.96;31.50;100879.28;15429651;28;20041;-54
2023/04/22 08:46:45;;;;;;;7.78;1.92;;;;;;;21.91;32.09;100889.16;15432475;28;20039;-54
2023/04/22 08:54:23;;;;;;;3.83;2.30;;;;;;;22.58;31.08;100881.34;15434123;28;20097;-56
2023/04/22 09:01:58;;;;;;;2.67;1.73;;;;;;;22.25;32.31;100874.75;15428340;28;20054;-53
2023/04/22 09:09:38;;;;;;;6.32;2.17;;;;;;;22.76;31.23;100868.03;15433065;28;20042;-52
2023/04/22 09:17:14;;;;;;;3.55;1.90;;;;;;;24.19;29.50;100853.38;15434234;28;20129;-53
2023/04/22 09:24:50;;;;;;;4.18;2.28;;;;;;;24.01;31.23;100846.78;15432742;28;20050;-52
2023/04/22 09:32:24;;;;;;;2.42;1.50;;;;;;;23.85;29.75;100838.00;15429743;28;20054;-52
2023/04/22 09:39:59;;;;;;;4.05;1.70;;;;;;;24.79;28.44;100826.03;15411895;28;20065;-54
2023/04/22 09:47:35;;;;;;;6.95;2.05;;;;;;;24.08;29.23;100822.56;15440990;28;20066;-53
2023/04/22 09:55:10;;;;;;;5.97;1.98;;;;;;;24.69;28.97;100813.31;15425303;28;20101;-51
2023/04/22 10:02:43;;;;;;;7.80;1.85;;;;;;;25.01;28.29;100805.28;15444251;28;20101;-51
2023/04/22 10:10:17;;;;;;;3.85;1.42;;;;;;;24.50;26.45;100792.53;15417114;28;20049;-50
2023/04/22 10:17:52;;;;;;;4.72;2.15;;;;;;;24.62;28.02;100788.19;15429671;28;20118;-48
2023/04/22 10:25:27;;;;;;;2.70;1.83;;;;;;;24.30;27.42;100771.75;15425602;28;20142;-54
2023/04/22 10:33:38;;;;;;;4.43;2.10;;;;;;;24.12;26.39;100766.00;15425437;28;20046;-53
2023/04/22 10:41:15;;;;;;;3.65;1.77;;;;;;;23.58;25.49;100764.63;15423002;28;20042;-52
2023/04/22 10:48:48;;;;;;;3.28;1.70;;;;;;;24.38;25.90;100754.59;15438277;28;20106;-53
2023/04/22 10:56:23;;;;;;;3.58;1.83;;;;;;;24.96;24.42;100747.72;15434016;28;20070;-51
2023/04/22 11:04:21;;;;;;;5.75;2.13;;;;;;;24.39;24.42;100743.34;15427657;28;20153;-53
2023/04/22 11:12:49;;;;;;;5.72;2.40;;;;;;;24.90;23.41;100720.38;15435644;28;20071;-52
2023/04/22 11:20:23;;;;;;;4.68;1.60;;;;;;;24.84;24.72;100724.34;15277584;28;20047;-55
2023/04/22 11:27:58;;;;;;;4.05;1.65;;;;;;;24.69;23.29;100722.72;15444654;28;20137;-51
2023/04/22 11:35:33;;;;;;;2.60;1.23;;;;;;;24.61;22.54;100728.09;15433891;28;20101;-52
2023/04/22 11:43:17;;;;;;;2.38;1.40;;;;;;;25.76;23.17;100711.31;15430645;28;20043;-51
2023/04/22 11:51:06;;;;;;;2.58;1.55;;;;;;;25.01;21.55;100699.00;15432778;28;20039;-53
2023/04/22 11:58:41;;;;;;;3.70;1.63;;;;;;;25.27;23.12;100702.00;15450970;28;20039;-56
2023/04/22 12:06:16;;;;;;;4.03;1.88;;;;;;;25.58;22.80;100695.81;15434116;28;20050;-53
2023/04/22 12:13:50;;;;;;;3.78;1.50;;;;;;;25.77;23.78;100690.94;15448547;28;20457;-56
2023/04/22 12:21:27;;;;;;;4.22;2.33;;;;;;;25.15;24.07;100683.31;15427437;28;20046;-54
2023/04/22 12:29:01;;;;;;;4.45;1.95;;;;;;;25.65;24.62;100677.75;15434028;28;20598;-54
2023/04/22 12:36:34;;;;;;;4.95;2.20;;;;;;;25.75;24.60;100676.69;15434648;28;20047;-51
2023/04/22 12:44:08;;;;;;;4.25;2.13;;;;;;;25.52;26.90;100667.63;15434822;28;20113;-52
2023/04/22 12:51:42;;;;;;;8.18;1.95;;;;;;;25.54;24.48;100670.88;15433062;28;20525;-52
2023/04/22 12:59:16;;;;;;;3.88;2.00;;;;;;;26.30;24.09;100659.84;15419586;28;20389;-53
2023/04/22 13:06:55;;;;;;;3.70;2.00;;;;;;;25.88;23.36;100642.84;15426977;28;20105;-52
2023/04/22 13:14:29;;;;;;;4.03;1.70;;;;;;;24.55;25.21;100644.25;15410301;28;20046;-52
2023/04/22 13:22:04;;;;;;;4.05;1.75;;;;;;;25.73;24.93;100628.63;15419730;28;20127;-53
2023/04/22 13:29:38;;;;;;;6.03;1.67;;;;;;;25.75;24.68;100610.69;15416548;28;20050;-52
2023/04/22 13:37:13;;;;;;;2.25;1.83;;;;;;;24.90;25.34;100609.72;15417225;28;20039;-55
2023/04/22 13:52:40;;;;;;;6.90;1.73;;;;;;;23.64;27.41;100584.53;15434586;28;20117;-52
2023/04/22 14:00:14;;;;;;;4.45;2.28;;;;;;;23.85;25.58;100574.81;15415184;28;20061;-54
2023/04/22 14:07:48;;;;;;;2.47;1.50;;;;;;;23.53;28.05;100563.88;15422727;28;20039;-52
2023/04/22 14:15:23;;;;;;;3.75;1.85;;;;;;;24.03;26.27;100553.13;15440265;28;20471;-52
2023/04/22 14:22:56;;;;;;;4.88;1.85;;;;;;;23.59;29.11;100552.53;15418639;28;20388;-51
2023/04/22 14:30:31;;;;;;;3.92;1.60;;;;;;;23.38;27.47;100537.56;15422315;28;20097;-52
2023/04/22 14:38:06;;;;;;;3.97;1.92;;;;;;;22.85;27.35;100535.16;15417676;28;20047;-52
2023/04/22 14:45:40;;;;;;;3.65;1.77;;;;;;;23.16;26.97;100525.34;15409796;28;20031;-52
2023/04/22 14:53:13;;;;;;;2.03;1.25;;;;;;;23.22;26.89;100525.25;15427331;28;20113;-52
2023/04/22 15:00:48;;;;;;;1.55;1.20;;;;;;;22.80;27.25;100489.50;15448848;23;20559;-82
2023/04/22 15:08:24;;;;;;;3.05;1.45;;;;;;;22.80;26.97;100475.84;15517788;28;20066;-83
2023/04/22 15:15:59;;;;;;;1.48;1.15;;;;;;;23.19;26.31;100499.28;15547018;28;20552;-83
2023/04/22 15:23:32;;;;;;;5.45;1.90;;;;;;;22.79;26.83;100496.06;15558018;28;20053;-82
2023/04/22 15:31:07;;;;;;;7.80;1.67;;;;;;;22.73;27.08;100458.16;15584312;28;20050;-84
2023/04/22 15:38:42;;;;;;;5.70;1.70;;;;;;;22.63;27.40;100475.53;15583063;28;20050;-85
2023/04/22 15:46:19;;;;;;;3.70;1.75;;;;;;;22.21;27.81;100367.06;15613170;28;20046;-85
2023/04/22 15:53:57;;;;;;;4.43;1.70;;;;;;;22.56;29.46;100445.81;15594256;28;20054;-83
2023/04/22 16:01:35;;;;;;;8.23;1.13;;;;;;;22.00;27.86;100432.13;15578111;28;20042;-83
2023/04/22 16:09:09;;;;;;;2.60;1.52;;;;;;;22.29;28.79;100410.97;15578256;28;20072;-84
2023/04/22 16:16:44;;;;;;;2.88;1.50;;;;;;;22.23;28.33;100453.16;15593288;28;20034;-81
2023/04/22 16:24:22;;;;;;;3.97;1.70;;;;;;;22.00;27.78;100429.38;15580396;28;20041;-83
2023/04/22 16:32:00;;;;;;;4.93;1.67;;;;;;;22.01;27.48;100379.06;15583319;28;20046;-83
2023/04/22 16:39:34;;;;;;;3.33;1.65;;;;;;;21.81;27.57;100382.91;15583351;28;20073;-83
2023/04/22 16:47:08;;;;;;;2.10;1.13;;;;;;;22.07;28.22;100425.19;15559502;28;20049;-81
2023/04/22 16:54:41;;;;;;;2.85;1.40;;;;;;;21.88;28.84;100413.44;15547972;28;20081;-82
2023/04/22 17:02:16;;;;;;;3.20;1.63;;;;;;;21.85;28.16;100419.47;15559033;28;20034;-82
2023/04/22 17:09:50;;;;;;;9.98;3.35;;;;;;;22.00;28.72;100419.25;15567068;28;20500;-81
2023/04/22 17:17:24;;;;;;;4.65;1.85;;;;;;;21.80;31.57;100400.41;15573452;28;20409;-82
2023/04/22 17:24:58;;;;;;;2.30;1.40;;;;;;;21.01;31.93;100419.03;15554688;28;20042;-81
2023/04/22 17:32:32;;;;;;;4.78;2.10;;;;;;;21.25;30.82;100427.25;15569379;28;20057;-79
2023/04/22 17:40:07;;;;;;;4.10;1.83;;;;;;;21.43;30.55;100420.25;15571823;28;20045;-82
2023/04/22 17:47:42;;;;;;;2.40;1.13;;;;;;;20.87;31.00;100361.59;15561578;28;20056;-82
2023/04/22 17:55:15;;;;;;;4.85;1.88;;;;;;;20.68;31.75;100412.50;15545878;28;20468;-82
2023/04/22 18:02:49;;;;;;;4.68;1.85;;;;;;;20.58;31.77;100433.28;15563412;28;20057;-83
2023/04/22 18:10:23;;;;;;;2.53;1.60;;;;;;;20.41;32.35;100424.66;15574057;28;20046;-83
2023/04/22 18:17:57;;;;;;;6.28;2.70;;;;;;;20.31;32.64;100422.00;15585063;28;20073;-85
2023/04/22 18:25:30;;;;;;;2.95;1.58;;;;;;;20.03;33.23;100429.00;15591291;28;20062;-84
2023/04/22 18:33:05;;;;;;;3.92;1.67;;;;;;;19.85;33.05;100442.13;15573214;28;20142;-82
2023/04/22 18:40:38;;;;;;;3.85;1.48;;;;;;;18.98;33.96;100361.81;15582003;28;20046;-83
2023/04/22 18:48:13;;;;;;;4.00;2.20;;;;;;;19.13;34.19;100393.63;15569133;28;20076;-83
2023/04/22 18:55:47;;;;;;;4.95;3.30;;;;;;;18.96;35.74;100454.59;15568186;28;20101;-82
2023/04/22 19:03:21;;;;;;;4.82;1.88;;;;;;;18.45;36.58;100432.78;15553401;28;20045;-83
2023/04/22 19:10:54;;;;;;;5.43;1.88;;;;;;;18.26;37.21;100435.19;15559178;28;20041;-82
2023/04/22 19:18:29;;;;;;;;;;;;;;;18.09;37.46;100430.00;15576198;28;20053;-83
2023/04/22 19:26:03;;;;;;;10.88;5.45;;;;;;;18.16;37.11;100399.84;15578355;28;19921;-84
2023/04/22 19:33:38;;;;;;;6.18;2.38;;;;;;;18.22;36.94;100430.56;15575604;28;20121;-84
2023/04/22 19:41:11;;;;;;;4.40;2.05;;;;;;;17.58;38.18;100415.41;15580418;28;20047;-83
2023/04/22 19:48:46;;;;;;;3.42;2.33;;;;;;;17.36;38.60;100414.75;15532136;28;20068;-82
2023/04/22 19:56:22;;;;;;;4.80;1.85;;;;;;;16.87;39.14;100382.44;15608793;28;20030;-81
2023/04/22 20:03:57;;;;;;;5.82;2.08;;;;;;;16.70;39.02;100337.31;15630006;28;20057;-82
2023/04/22 20:11:31;;;;;;;3.75;2.13;;;;;;;16.81;38.87;100368.84;15583934;28;20095;-84
2023/04/22 20:19:05;;;;;;;5.07;3.30;;;;;;;16.64;39.78;100392.53;15595428;28;20050;-84
2023/04/22 20:26:39;;;;;;;5.85;3.58;;;;;;;16.43;39.53;100331.94;15609124;28;20108;-85
2023/04/22 20:34:14;;;;;;;7.47;3.00;;;;;;;16.78;39.22;100380.19;15538440;28;20042;-82
2023/04/22 20:41:47;;;;;;;3.45;2.15;;;;;;;15.64;40.15;100255.97;15549450;28;20133;-85
2023/04/22 20:49:22;;;;;;;4.80;2.22;;;;;;;16.20;41.05;100378.31;15589704;28;20036;-83
2023/04/22 20:56:56;;;;;;;11.73;1.55;;;;;;;15.62;41.96;100350.06;15588410;28;20102;-85
2023/04/22 21:04:32;;;;;;;4.32;1.77;;;;;;;15.63;42.41;100368.75;15573349;28;20088;-84
2023/04/22 21:12:06;;;;;;;8.07;3.05;;;;;;;16.18;41.49;100362.34;15569850;28;20027;-82
2023/04/22 21:19:46;;;;;;;5.00;2.35;;;;;;;15.42;42.26;100288.44;15620971;28;20033;-81
2023/04/22 21:27:21;;;;;;;6.47;2.90;;;;;;;15.81;41.99;100327.88;15586814;28;20046;-83
2023/04/22 21:34:56;;;;;;;4.70;2.83;;;;;;;15.95;42.21;100341.00;15579027;28;20291;-83
2023/04/22 21:42:29;;;;;;;3.20;1.75;;;;;;;16.04;42.59;100332.16;15581104;28;20046;-83
2023/04/22 21:50:04;;;;;;;4.57;2.00;;;;;;;15.49;42.68;100272.84;15545470;28;20092;-85
2023/04/22 21:57:38;;;;;;;4.82;2.03;;;;;;;14.89;43.58;100249.41;15574845;28;20048;-84
2023/04/22 22:05:14;;;;;;;6.93;2.50;;;;;;;14.93;43.85;100285.69;15581407;28;20072;-84
2023/04/22 22:12:48;;;;;;;6.45;2.97;;;;;;;15.11;43.76;100258.34;15591267;28;20050;-83
2023/04/22 22:20:23;;;;;;;6.57;2.53;;;;;;;15.63;43.52;100328.19;15573665;28;20038;-84
2023/04/22 22:27:56;;;;;;;9.63;1.75;;;;;;;15.53;43.59;100317.25;15582057;28;20042;-85
2023/04/22 22:35:31;;;;;;;3.63;2.15;;;;;;;15.27;44.17;100316.13;15596143;28;20046;-83
2023/04/22 22:43:04;;;;;;;5.00;2.10;;;;;;;16.09;42.33;100304.31;15619865;28;20042;-83
2023/04/22 22:50:38;;;;;;;4.07;2.05;;;;;;;15.68;43.76;100330.97;15587796;28;20129;-84
2023/04/22 22:58:11;;;;;;;6.88;2.60;;;;;;;15.85;42.84;100324.63;15531806;28;20072;-85
2023/04/22 23:05:46;;;;;;;5.35;2.13;;;;;;;16.07;42.42;100312.69;15545337;28;20537;-85
2023/04/22 23:13:20;;;;;;;5.57;1.95;;;;;;;15.42;43.26;100247.88;15593099;28;20426;-85
2023/04/22 23:20:57;;;;;;;3.40;1.85;;;;;;;16.05;41.90;100305.91;15559425;28;20050;-84
2023/04/22 23:28:32;;;;;;;3.58;2.05;;;;;;;15.93;41.41;100215.91;15575086;28;20105;-86
2023/04/22 23:36:09;;;;;;;3.83;1.88;;;;;;;16.27;41.61;100295.81;15570035;28;20064;-82
2023/04/22 23:43:42;;;;;;;5.88;3.20;;;;;;;15.50;42.85;100233.91;15584618;28;20104;-85
2023/04/22 23:51:16;;;;;;;3.50;1.85;;;;;;;16.19;42.24;100280.03;15564124;28;20046;-84
2023/04/22 23:58:50;;;;;;;7.88;2.83;;;;;;;15.50;42.65;100221.19;15529938;28;20378;-82
